weather.gov     
National Weather Service

Terminal Aerodrome Forecast
NWS Homepage
This page is being discontinued on March 12, 2014.
The same data is available at this site. Please update your bookmarks.
Thank you, and we apologize for the inconvenience.
Please send an email to SR-SRH.Webmaster@noaa.gov with any concerns.


Current Version
Previous Version:    01  02  03  04  05  06  07  08  09  10  11  12  13  14  15  16  17  18  19  20  21  22  23  24  25  26  27  28  29  30  
   31  32  33  34  35  36  37  38  39  40  41  42  43  44  45  46  47  48  49  50  51  52  53  54  55  
[Printable]
968
FTUS43 KSGF 170500
TAFBBG
TAF
KBBG 170520Z 1706/1806 13005KT 2SM BR BKN004
      TEMPO 1706/1707 1SM BR OVC002
     FM171000 17006KT 3SM BR SCT002 BKN004 OVC010
      TEMPO 1711/1715 3SM -TSRA SCT025 BKN040CB
     FM171500 19008KT P6SM VCTS BKN040CB BKN050
     FM171900 21008KT P6SM -SHRA SCT040 BKN060
     FM172300 15005KT P6SM BKN100=


U.S. Dept. of Commerce
NOAA National Weather Service
1325 East West Highway
Silver Spring, MD 20910
E-mail: w-nws.webmaster@noaa.gov
Page last modified: May 16, 2007
NATIONAL WEATHER SERVICE: for Safety, for Work, for Fun - FOR LIFE